sensor_id;sensor_type;location;lat;lon;timestamp;pressure;altitude;pressure_sealevel;temperature;humidity
73063;BME280;61230;46.328;19.972;2022-11-10T00:00:53;101052.28;;;11.31;100.00
73063;BME280;61230;46.328;19.972;2022-11-10T00:03:39;101048.13;;;11.29;100.00
73063;BME280;61230;46.328;19.972;2022-11-10T00:06:25;101044.75;;;11.27;100.00
73063;BME280;61230;46.328;19.972;2022-11-10T00:09:10;101040.31;;;11.27;100.00
73063;BME280;61230;46.328;19.972;2022-11-10T00:11:56;101045.59;;;11.27;100.00
73063;BME280;61230;46.328;19.972;2022-11-10T00:14:42;101049.31;;;11.25;100.00
73063;BME280;61230;46.328;19.972;2022-11-10T00:17:46;101050.16;;;11.25;100.00
73063;BME280;61230;46.328;19.972;2022-11-10T00:20:32;101047.37;;;11.27;100.00
73063;BME280;61230;46.328;19.972;2022-11-10T00:23:18;101049.22;;;11.26;100.00
73063;BME280;61230;46.328;19.972;2022-11-10T00:26:10;101053.50;;;11.27;100.00
73063;BME280;61230;46.328;19.972;2022-11-10T00:28:57;101046.69;;;11.25;100.00
73063;BME280;61230;46.328;19.972;2022-11-10T00:31:43;101046.44;;;11.28;100.00
73063;BME280;61230;46.328;19.972;2022-11-10T00:34:29;101046.44;;;11.28;100.00
73063;BME280;61230;46.328;19.972;2022-11-10T00:37:15;101055.28;;;11.27;100.00
73063;BME280;61230;46.328;19.972;2022-11-10T00:40:01;101056.97;;;11.28;100.00
73063;BME280;61230;46.328;19.972;2022-11-10T00:42:46;101050.03;;;11.27;100.00
73063;BME280;61230;46.328;19.972;2022-11-10T00:45:32;101046.44;;;11.28;100.00
73063;BME280;61230;46.328;19.972;2022-11-10T00:48:18;101050.84;;;11.27;100.00
73063;BME280;61230;46.328;19.972;2022-11-10T00:51:04;101050.03;;;11.27;100.00
73063;BME280;61230;46.328;19.972;2022-11-10T00:53:51;101048.13;;;11.29;100.00
73063;BME280;61230;46.328;19.972;2022-11-10T00:56:36;101051.69;;;11.28;100.00
73063;BME280;61230;46.328;19.972;2022-11-10T00:59:22;101052.53;;;11.28;100.00
73063;BME280;61230;46.328;19.972;2022-11-10T01:02:08;101052.66;;;11.27;100.00
73063;BME280;61230;46.328;19.972;2022-11-10T01:04:54;101057.91;;;11.27;100.00
73063;BME280;61230;46.328;19.972;2022-11-10T01:07:40;101047.28;;;11.28;100.00
73063;BME280;61230;46.328;19.972;2022-11-10T01:10:26;101050.75;;;11.29;100.00
73063;BME280;61230;46.328;19.972;2022-11-10T01:13:12;101057.81;;;11.28;100.00
73063;BME280;61230;46.328;19.972;2022-11-10T01:16:06;101056.97;;;11.28;100.00
73063;BME280;61230;46.328;19.972;2022-11-10T01:18:55;101056.97;;;11.28;100.00
73063;BME280;61230;46.328;19.972;2022-11-10T01:21:41;101051.69;;;11.28;100.00
73063;BME280;61230;46.328;19.972;2022-11-10T01:24:27;101056.00;;;11.29;100.00
73063;BME280;61230;46.328;19.972;2022-11-10T01:27:13;101055.03;;;11.30;100.00
73063;BME280;61230;46.328;19.972;2022-11-10T01:29:59;101053.38;;;11.29;100.00
73063;BME280;61230;46.328;19.972;2022-11-10T01:32:45;101061.03;;;11.32;100.00
73063;BME280;61230;46.328;19.972;2022-11-10T01:35:32;101065.47;;;11.31;100.00
73063;BME280;61230;46.328;19.972;2022-11-10T01:38:19;101062.81;;;11.31;100.00
73063;BME280;61230;46.328;19.972;2022-11-10T01:41:08;101062.81;;;11.31;100.00
73063;BME280;61230;46.328;19.972;2022-11-10T01:44:11;101055.03;;;11.30;100.00
73063;BME280;61230;46.328;19.972;2022-11-10T01:46:57;101054.75;;;11.23;100.00
73063;BME280;61230;46.328;19.972;2022-11-10T01:49:43;101055.69;;;11.22;100.00
73063;BME280;61230;46.328;19.972;2022-11-10T01:52:29;101055.94;;;11.19;100.00
73063;BME280;61230;46.328;19.972;2022-11-10T01:55:18;101061.09;;;11.21;100.00
73063;BME280;61230;46.328;19.972;2022-11-10T01:58:05;101058.56;;;11.19;100.00
73063;BME280;61230;46.328;19.972;2022-11-10T02:00:52;101052.47;;;11.19;100.00
73063;BME280;61230;46.328;19.972;2022-11-10T02:03:49;101049.97;;;11.17;100.00
73063;BME280;61230;46.328;19.972;2022-11-10T02:06:40;101054.41;;;11.17;100.00
73063;BME280;61230;46.328;19.972;2022-11-10T02:09:26;101053.47;;;11.18;100.00
73063;BME280;61230;46.328;19.972;2022-11-10T02:12:13;101047.34;;;11.17;100.00
73063;BME280;61230;46.328;19.972;2022-11-10T02:14:59;101055.09;;;11.19;100.00
73063;BME280;61230;46.328;19.972;2022-11-10T02:17:46;101055.94;;;11.19;100.00
73063;BME280;61230;46.328;19.972;2022-11-10T02:20:33;101060.37;;;11.19;100.00
73063;BME280;61230;46.328;19.972;2022-11-10T02:26:22;101068.53;;;11.16;100.00
73063;BME280;61230;46.328;19.972;2022-11-10T02:29:09;101064.94;;;11.17;100.00
73063;BME280;61230;46.328;19.972;2022-11-10T02:31:55;101063.16;;;11.17;100.00
73063;BME280;61230;46.328;19.972;2022-11-10T02:34:41;101058.00;;;11.16;100.00
73063;BME280;61230;46.328;19.972;2022-11-10T02:37:27;101057.03;;;11.17;100.00
73063;BME280;61230;46.328;19.972;2022-11-10T02:40:13;101062.75;;;11.22;100.00
73063;BME280;61230;46.328;19.972;2022-11-10T02:42:59;101053.31;;;11.19;100.00
73063;BME280;61230;46.328;19.972;2022-11-10T02:45:45;101064.94;;;11.17;100.00
73063;BME280;61230;46.328;19.972;2022-11-10T02:48:31;101064.00;;;11.18;100.00
73063;BME280;61230;46.328;19.972;2022-11-10T02:51:18;101060.50;;;11.17;100.00
73063;BME280;61230;46.328;19.972;2022-11-10T02:54:04;101071.88;;;11.18;100.00
73063;BME280;61230;46.328;19.972;2022-11-10T02:56:51;101069.97;;;11.20;100.00
73063;BME280;61230;46.328;19.972;2022-11-10T02:59:38;101058.84;;;11.16;100.00
73063;BME280;61230;46.328;19.972;2022-11-10T03:02:24;101068.28;;;11.19;100.00
73063;BME280;61230;46.328;19.972;2022-11-10T03:05:16;101075.22;;;11.20;100.00
73063;BME280;61230;46.328;19.972;2022-11-10T03:08:02;101075.34;;;11.18;100.00
73063;BME280;61230;46.328;19.972;2022-11-10T03:10:52;101074.53;;;11.18;100.00
73063;BME280;61230;46.328;19.972;2022-11-10T03:13:38;101076.91;;;11.21;100.00
73063;BME280;61230;46.328;19.972;2022-11-10T03:16:44;101081.59;;;11.17;100.00
73063;BME280;61230;46.328;19.972;2022-11-10T03:19:30;101082.44;;;11.18;100.00
73063;BME280;61230;46.328;19.972;2022-11-10T03:22:16;101081.44;;;11.19;100.00
73063;BME280;61230;46.328;19.972;2022-11-10T03:25:02;101079.66;;;11.19;100.00
73063;BME280;61230;46.328;19.972;2022-11-10T03:27:48;101080.59;;;11.18;100.00
73063;BME280;61230;46.328;19.972;2022-11-10T03:30:34;101074.63;;;11.16;100.00
73063;BME280;61230;46.328;19.972;2022-11-10T03:33:20;101081.44;;;11.19;100.00
73063;BME280;61230;46.328;19.972;2022-11-10T03:36:07;101080.16;;;11.13;100.00
73063;BME280;61230;46.328;19.972;2022-11-10T03:38:53;101089.22;;;11.20;100.00
73063;BME280;61230;46.328;19.972;2022-11-10T03:41:39;101088.41;;;11.20;100.00
73063;BME280;61230;46.328;19.972;2022-11-10T03:44:24;101087.69;;;11.18;100.00
73063;BME280;61230;46.328;19.972;2022-11-10T03:47:10;101097.97;;;11.21;100.00
73063;BME280;61230;46.328;19.972;2022-11-10T03:49:56;101098.09;;;11.19;100.00
73063;BME280;61230;46.328;19.972;2022-11-10T03:52:43;101106.56;;;11.23;100.00
73063;BME280;61230;46.328;19.972;2022-11-10T03:55:30;101110.16;;;11.22;100.00
73063;BME280;61230;46.328;19.972;2022-11-10T03:58:15;101105.75;;;11.22;100.00
73063;BME280;61230;46.328;19.972;2022-11-10T04:01:01;101110.16;;;11.22;100.00
73063;BME280;61230;46.328;19.972;2022-11-10T04:03:47;101109.31;;;11.21;100.00
73063;BME280;61230;46.328;19.972;2022-11-10T04:06:36;101110.16;;;11.22;100.00
73063;BME280;61230;46.328;19.972;2022-11-10T04:09:40;101120.84;;;11.20;100.00
73063;BME280;61230;46.328;19.972;2022-11-10T04:12:26;101131.25;;;11.22;100.00
73063;BME280;61230;46.328;19.972;2022-11-10T04:15:31;101118.91;;;11.22;100.00
73063;BME280;61230;46.328;19.972;2022-11-10T04:18:28;101124.19;;;11.22;100.00
73063;BME280;61230;46.328;19.972;2022-11-10T04:21:14;101125.13;;;11.21;100.00
73063;BME280;61230;46.328;19.972;2022-11-10T04:24:00;101117.81;;;11.25;100.00
73063;BME280;61230;46.328;19.972;2022-11-10T04:26:46;101124.87;;;11.24;100.00
73063;BME280;61230;46.328;19.972;2022-11-10T04:29:33;101114.34;;;11.24;100.00
73063;BME280;61230;46.328;19.972;2022-11-10T04:32:19;101123.09;;;11.25;100.00
73063;BME280;61230;46.328;19.972;2022-11-10T04:35:05;101123.34;;;11.22;100.00
73063;BME280;61230;46.328;19.972;2022-11-10T04:37:51;101130.28;;;11.23;100.00
73063;BME280;61230;46.328;19.972;2022-11-10T04:40:37;101125.03;;;11.23;100.00
73063;BME280;61230;46.328;19.972;2022-11-10T04:43:23;101123.59;;;11.19;100.00
73063;BME280;61230;46.328;19.972;2022-11-10T04:46:24;101132.34;;;11.19;100.00
73063;BME280;61230;46.328;19.972;2022-11-10T04:49:11;101132.34;;;11.19;100.00
73063;BME280;61230;46.328;19.972;2022-11-10T04:51:57;101135.09;;;11.18;100.00
73063;BME280;61230;46.328;19.972;2022-11-10T04:54:43;101139.41;;;11.19;100.00
73063;BME280;61230;46.328;19.972;2022-11-10T04:57:29;101137.75;;;11.18;100.00
73063;BME280;61230;46.328;19.972;2022-11-10T05:00:15;101144.56;;;11.20;100.00
73063;BME280;61230;46.328;19.972;2022-11-10T05:03:02;101141.06;;;11.20;100.00
73063;BME280;61230;46.328;19.972;2022-11-10T05:05:49;101142.88;;;11.19;100.00
73063;BME280;61230;46.328;19.972;2022-11-10T05:08:35;101143.72;;;11.20;100.00
73063;BME280;61230;46.328;19.972;2022-11-10T05:11:22;101154.50;;;11.17;100.00
73063;BME280;61230;46.328;19.972;2022-11-10T05:14:08;101146.59;;;11.17;100.00
73063;BME280;61230;46.328;19.972;2022-11-10T05:16:54;101154.75;;;11.14;100.00
73063;BME280;61230;46.328;19.972;2022-11-10T05:19:40;101149.47;;;11.14;100.00
73063;BME280;61230;46.328;19.972;2022-11-10T05:22:26;101160.84;;;11.14;100.00
73063;BME280;61230;46.328;19.972;2022-11-10T05:25:12;101161.56;;;11.16;100.00
73063;BME280;61230;46.328;19.972;2022-11-10T05:27:58;101168.63;;;11.16;100.00
73063;BME280;61230;46.328;19.972;2022-11-10T05:30:43;101162.53;;;11.15;100.00
73063;BME280;61230;46.328;19.972;2022-11-10T05:33:29;101167.06;;;11.13;100.00
73063;BME280;61230;46.328;19.972;2022-11-10T05:36:15;101171.50;;;11.13;100.00
73063;BME280;61230;46.328;19.972;2022-11-10T05:39:01;101181.34;;;11.11;100.00
73063;BME280;61230;46.328;19.972;2022-11-10T05:41:47;101169.00;;;11.11;100.00
73063;BME280;61230;46.328;19.972;2022-11-10T05:44:33;101178.00;;;11.09;100.00
73063;BME280;61230;46.328;19.972;2022-11-10T05:47:19;101185.19;;;11.07;100.00
73063;BME280;61230;46.328;19.972;2022-11-10T05:50:06;101190.47;;;11.07;100.00
73063;BME280;61230;46.328;19.972;2022-11-10T05:52:53;101187.09;;;11.05;100.00
73063;BME280;61230;46.328;19.972;2022-11-10T05:55:39;101199.06;;;11.09;100.00
73063;BME280;61230;46.328;19.972;2022-11-10T05:58:25;101205.28;;;11.08;100.00
73063;BME280;61230;46.328;19.972;2022-11-10T06:01:11;101208.06;;;11.06;100.00
73063;BME280;61230;46.328;19.972;2022-11-10T06:03:56;101214.88;;;11.09;100.00
73063;BME280;61230;46.328;19.972;2022-11-10T06:06:42;101218.59;;;11.06;100.00
73063;BME280;61230;46.328;19.972;2022-11-10T06:09:28;101222.06;;;11.07;100.00
73063;BME280;61230;46.328;19.972;2022-11-10T06:12:14;101223.63;;;11.09;100.00
73063;BME280;61230;46.328;19.972;2022-11-10T06:15:00;101234.72;;;11.13;100.00
73063;BME280;61230;46.328;19.972;2022-11-10T06:17:48;101238.44;;;11.10;100.00
73063;BME280;61230;46.328;19.972;2022-11-10T06:20:34;101239.53;;;11.08;100.00
73063;BME280;61230;46.328;19.972;2022-11-10T06:23:20;101240.59;;;11.05;100.00
73063;BME280;61230;46.328;19.972;2022-11-10T06:26:07;101249.34;;;11.06;100.00
73063;BME280;61230;46.328;19.972;2022-11-10T06:28:53;101252.00;;;11.06;100.00
73063;BME280;61230;46.328;19.972;2022-11-10T06:31:38;101260.59;;;11.08;100.00
73063;BME280;61230;46.328;19.972;2022-11-10T06:34:24;101262.97;;;11.11;100.00
73063;BME280;61230;46.328;19.972;2022-11-10T06:37:10;101266.22;;;11.14;100.00
73063;BME280;61230;46.328;19.972;2022-11-10T06:39:56;101278.16;;;11.18;100.00
73063;BME280;61230;46.328;19.972;2022-11-10T06:42:42;101284.28;;;11.19;100.00
73063;BME280;61230;46.328;19.972;2022-11-10T06:45:28;101277.91;;;11.21;100.00
73063;BME280;61230;46.328;19.972;2022-11-10T06:48:13;101288.22;;;11.24;100.00
73063;BME280;61230;46.328;19.972;2022-11-10T06:51:00;101285.09;;;11.30;100.00
73063;BME280;61230;46.328;19.972;2022-11-10T06:53:46;101292.50;;;11.36;100.00
73063;BME280;61230;46.328;19.972;2022-11-10T06:56:32;101297.53;;;11.39;100.00
73063;BME280;61230;46.328;19.972;2022-11-10T06:59:19;101307.44;;;11.47;100.00
73063;BME280;61230;46.328;19.972;2022-11-10T07:02:11;101316.53;;;11.54;100.00
73063;BME280;61230;46.328;19.972;2022-11-10T07:04:57;101316.03;;;11.60;100.00
73063;BME280;61230;46.328;19.972;2022-11-10T07:07:44;101315.88;;;11.62;100.00
73063;BME280;61230;46.328;19.972;2022-11-10T07:10:30;101319.81;;;11.67;100.00
73063;BME280;61230;46.328;19.972;2022-11-10T07:13:16;101320.91;;;11.76;100.00
73063;BME280;61230;46.328;19.972;2022-11-10T07:16:06;101319.56;;;11.81;100.00
73063;BME280;61230;46.328;19.972;2022-11-10T07:18:52;101320.00;;;11.86;100.00
73063;BME280;61230;46.328;19.972;2022-11-10T07:21:40;101325.16;;;11.88;99.18
73063;BME280;61230;46.328;19.972;2022-11-10T07:24:26;101325.16;;;11.88;99.87
73063;BME280;61230;46.328;19.972;2022-11-10T07:27:15;101337.00;;;11.93;99.94
73063;BME280;61230;46.328;19.972;2022-11-10T07:30:01;101324.66;;;11.94;99.56
73063;BME280;61230;46.328;19.972;2022-11-10T07:32:59;101335.66;;;11.99;99.19
73063;BME280;61230;46.328;19.972;2022-11-10T07:35:52;101339.66;;;11.93;98.96
73063;BME280;61230;46.328;19.972;2022-11-10T07:38:39;101354.28;;;11.86;99.77
73063;BME280;61230;46.328;19.972;2022-11-10T07:41:25;101347.66;;;11.71;100.00
73063;BME280;61230;46.328;19.972;2022-11-10T07:44:10;101349.31;;;11.61;100.00
73063;BME280;61230;46.328;19.972;2022-11-10T07:46:56;101357.69;;;11.77;100.00
73063;BME280;61230;46.328;19.972;2022-11-10T07:49:42;101355.06;;;11.77;100.00
73063;BME280;61230;46.328;19.972;2022-11-10T07:52:28;101361.75;;;11.81;100.00
73063;BME280;61230;46.328;19.972;2022-11-10T07:55:14;101363.28;;;11.84;100.00
73063;BME280;61230;46.328;19.972;2022-11-10T07:58:00;101367.03;;;11.81;100.00
73063;BME280;61230;46.328;19.972;2022-11-10T08:00:46;101361.16;;;11.78;100.00
73063;BME280;61230;46.328;19.972;2022-11-10T08:03:34;101365.87;;;11.95;100.00
73063;BME280;61230;46.328;19.972;2022-11-10T08:06:20;101376.56;;;11.93;100.00
73063;BME280;61230;46.328;19.972;2022-11-10T08:09:06;101375.09;;;12.00;100.00
73063;BME280;61230;46.328;19.972;2022-11-10T08:11:52;101377.62;;;12.02;100.00
73063;BME280;61230;46.328;19.972;2022-11-10T08:14:38;101380.34;;;12.12;100.00
73063;BME280;61230;46.328;19.972;2022-11-10T08:17:24;101382.50;;;12.06;100.00
73063;BME280;61230;46.328;19.972;2022-11-10T08:20:10;101390.00;;;11.90;100.00
73063;BME280;61230;46.328;19.972;2022-11-10T08:23:03;101387.72;;;11.97;100.00
73063;BME280;61230;46.328;19.972;2022-11-10T08:25:50;101394.44;;;11.90;100.00
73063;BME280;61230;46.328;19.972;2022-11-10T08:28:37;101390.28;;;11.65;100.00
73063;BME280;61230;46.328;19.972;2022-11-10T08:31:23;101396.81;;;11.93;100.00
73063;BME280;61230;46.328;19.972;2022-11-10T08:34:09;101399.66;;;12.01;100.00
73063;BME280;61230;46.328;19.972;2022-11-10T08:36:55;101400.16;;;11.95;100.00
73063;BME280;61230;46.328;19.972;2022-11-10T08:39:41;101405.78;;;12.01;100.00
73063;BME280;61230;46.328;19.972;2022-11-10T08:42:27;101403.50;;;12.08;100.00
73063;BME280;61230;46.328;19.972;2022-11-10T08:45:13;101404.25;;;11.99;100.00
73063;BME280;61230;46.328;19.972;2022-11-10T08:48:02;101407.56;;;12.33;100.00
73063;BME280;61230;46.328;19.972;2022-11-10T08:50:49;101406.78;;;12.21;100.00
73063;BME280;61230;46.328;19.972;2022-11-10T08:53:36;101409.06;;;12.26;100.00
73063;BME280;61230;46.328;19.972;2022-11-10T08:56:22;101423.44;;;12.53;100.00
73063;BME280;61230;46.328;19.972;2022-11-10T08:59:09;101416.03;;;12.68;99.64
73063;BME280;61230;46.328;19.972;2022-11-10T09:01:56;101425.34;;;12.72;98.66
73063;BME280;61230;46.328;19.972;2022-11-10T09:04:42;101434.69;;;12.76;99.07
73063;BME280;61230;46.328;19.972;2022-11-10T09:07:29;101436.69;;;12.84;99.08
73063;BME280;61230;46.328;19.972;2022-11-10T09:10:16;101441.84;;;12.85;98.95
73063;BME280;61230;46.328;19.972;2022-11-10T09:13:02;101453.09;;;12.87;99.25
73063;BME280;61230;46.328;19.972;2022-11-10T09:15:49;101449.38;;;13.10;98.38
73063;BME280;61230;46.328;19.972;2022-11-10T09:18:34;101447.34;;;13.23;97.60
73063;BME280;61230;46.328;19.972;2022-11-10T09:21:20;101460.56;;;13.23;98.05
73063;BME280;61230;46.328;19.972;2022-11-10T09:24:07;101458.44;;;13.17;97.41
73063;BME280;61230;46.328;19.972;2022-11-10T09:26:52;101461.50;;;13.13;97.78
73063;BME280;61230;46.328;19.972;2022-11-10T09:29:38;101469.91;;;13.28;97.79
73063;BME280;61230;46.328;19.972;2022-11-10T09:32:24;101470.78;;;13.07;97.75
73063;BME280;61230;46.328;19.972;2022-11-10T09:35:10;101481.19;;;13.30;97.33
73063;BME280;61230;46.328;19.972;2022-11-10T09:37:56;101486.03;;;13.24;96.99
73063;BME280;61230;46.328;19.972;2022-11-10T09:40:44;101479.84;;;13.14;97.70
73063;BME280;61230;46.328;19.972;2022-11-10T09:46:47;101498.03;;;13.08;98.23
73063;BME280;61230;46.328;19.972;2022-11-10T09:49:38;101506.72;;;12.99;98.94
73063;BME280;61230;46.328;19.972;2022-11-10T09:52:29;101495.97;;;12.91;97.48
73063;BME280;61230;46.328;19.972;2022-11-10T09:55:21;101509.03;;;12.92;98.40
73063;BME280;61230;46.328;19.972;2022-11-10T09:58:11;101513.12;;;12.64;98.33
73063;BME280;61230;46.328;19.972;2022-11-10T10:07:17;101504.50;;;12.62;96.32
73063;BME280;61230;46.328;19.972;2022-11-10T10:17:13;101508.06;;;12.41;96.09
73063;BME280;61230;46.328;19.972;2022-11-10T10:20:15;101511.16;;;12.46;96.37
73063;BME280;61230;46.328;19.972;2022-11-10T10:23:14;101518.88;;;12.38;95.44
73063;BME280;61230;46.328;19.972;2022-11-10T10:26:02;101524.69;;;12.21;96.91
73063;BME280;61230;46.328;19.972;2022-11-10T10:28:49;101523.34;;;12.26;97.80
73063;BME280;61230;46.328;19.972;2022-11-10T10:31:41;101525.91;;;12.17;99.03
73063;BME280;61230;46.328;19.972;2022-11-10T10:34:30;101522.81;;;11.89;99.99
73063;BME280;61230;46.328;19.972;2022-11-10T10:37:25;101516.97;;;11.97;97.82
73063;BME280;61230;46.328;19.972;2022-11-10T10:40:17;101525.97;;;11.94;97.73
73063;BME280;61230;46.328;19.972;2022-11-10T10:43:04;101522.34;;;11.95;97.06
73063;BME280;61230;46.328;19.972;2022-11-10T10:46:13;101529.31;;;11.96;97.00
73063;BME280;61230;46.328;19.972;2022-11-10T10:49:20;101528.34;;;12.08;97.33
73063;BME280;61230;46.328;19.972;2022-11-10T10:52:16;101532.09;;;12.27;95.89
73063;BME280;61230;46.328;19.972;2022-11-10T10:55:11;101533.78;;;12.28;96.12
73063;BME280;61230;46.328;19.972;2022-11-10T10:58:05;101540.62;;;12.30;95.24
73063;BME280;61230;46.328;19.972;2022-11-10T11:00:54;101543.50;;;12.27;95.00
73063;BME280;61230;46.328;19.972;2022-11-10T11:06:31;101551.09;;;11.98;94.52
73063;BME280;61230;46.328;19.972;2022-11-10T11:09:22;101545.97;;;11.97;95.87
73063;BME280;61230;46.328;19.972;2022-11-10T11:18:16;101557.72;;;11.93;96.01
73063;BME280;61230;46.328;19.972;2022-11-10T11:27:04;101566.78;;;11.67;97.54
73063;BME280;61230;46.328;19.972;2022-11-10T11:30:14;101560.94;;;11.52;98.24
73063;BME280;61230;46.328;19.972;2022-11-10T11:33:14;101564.91;;;11.58;98.46
73063;BME280;61230;46.328;19.972;2022-11-10T11:36:37;101564.75;;;11.48;98.36
73063;BME280;61230;46.328;19.972;2022-11-10T11:51:47;101570.78;;;11.72;95.72
73063;BME280;61230;46.328;19.972;2022-11-10T11:54:44;101569.19;;;11.59;97.45
73063;BME280;61230;46.328;19.972;2022-11-10T12:00:25;101589.31;;;11.37;96.06
73063;BME280;61230;46.328;19.972;2022-11-10T12:06:37;101593.00;;;11.24;96.27
73063;BME280;61230;46.328;19.972;2022-11-10T12:09:41;101599.94;;;11.36;96.13
73063;BME280;61230;46.328;19.972;2022-11-10T12:16:21;101606.94;;;11.48;92.41
73063;BME280;61230;46.328;19.972;2022-11-10T12:28:17;101603.50;;;11.70;91.74
73063;BME280;61230;46.328;19.972;2022-11-10T12:31:13;101601.72;;;11.70;92.67
73063;BME280;61230;46.328;19.972;2022-11-10T12:34:12;101603.16;;;11.74;91.49
73063;BME280;61230;46.328;19.972;2022-11-10T12:37:02;101608.19;;;11.88;91.30
73063;BME280;61230;46.328;19.972;2022-11-10T12:40:01;101609.50;;;12.05;90.85
73063;BME280;61230;46.328;19.972;2022-11-10T12:42:58;101619.69;;;12.09;90.65
73063;BME280;61230;46.328;19.972;2022-11-10T12:45:50;101617.28;;;12.06;90.32
73063;BME280;61230;46.328;19.972;2022-11-10T12:51:56;101614.06;;;12.03;89.82
73063;BME280;61230;46.328;19.972;2022-11-10T12:54:47;101622.44;;;12.19;88.26
73063;BME280;61230;46.328;19.972;2022-11-10T12:57:33;101611.03;;;12.30;88.52
73063;BME280;61230;46.328;19.972;2022-11-10T13:00:26;101624.13;;;12.20;89.26
73063;BME280;61230;46.328;19.972;2022-11-10T13:03:23;101623.87;;;12.12;88.28
73063;BME280;61230;46.328;19.972;2022-11-10T13:09:30;101629.91;;;12.03;88.87
73063;BME280;61230;46.328;19.972;2022-11-10T13:12:21;101628.59;;;11.97;89.19
73063;BME280;61230;46.328;19.972;2022-11-10T13:21:17;101628.56;;;12.31;88.70
73063;BME280;61230;46.328;19.972;2022-11-10T13:32:33;101641.03;;;12.29;88.39
73063;BME280;61230;46.328;19.972;2022-11-10T13:41:25;101659.25;;;12.21;89.26
73063;BME280;61230;46.328;19.972;2022-11-10T13:44:32;101659.84;;;12.24;89.82
73063;BME280;61230;46.328;19.972;2022-11-10T13:47:54;101666.44;;;12.30;88.63
73063;BME280;61230;46.328;19.972;2022-11-10T14:03:05;101685.88;;;11.95;90.29
73063;BME280;61230;46.328;19.972;2022-11-10T14:08:57;101682.44;;;12.06;90.14
73063;BME280;61230;46.328;19.972;2022-11-10T14:12:04;101683.47;;;12.03;90.49
73063;BME280;61230;46.328;19.972;2022-11-10T14:15:02;101686.72;;;12.07;90.62
73063;BME280;61230;46.328;19.972;2022-11-10T14:17:54;101690.22;;;12.07;90.47
73063;BME280;61230;46.328;19.972;2022-11-10T14:20:42;101685.41;;;12.01;90.98
73063;BME280;61230;46.328;19.972;2022-11-10T14:23:42;101694.75;;;11.94;91.06
73063;BME280;61230;46.328;19.972;2022-11-10T14:26:52;101686.78;;;11.72;91.95
73063;BME280;61230;46.328;19.972;2022-11-10T14:29:39;101688.25;;;11.76;91.92
73063;BME280;61230;46.328;19.972;2022-11-10T14:32:25;101702.09;;;11.67;92.84
73063;BME280;61230;46.328;19.972;2022-11-10T14:35:23;101701.91;;;11.70;93.03
73063;BME280;61230;46.328;19.972;2022-11-10T14:38:31;101701.06;;;11.70;92.63
73063;BME280;61230;46.328;19.972;2022-11-10T14:41:23;101697.91;;;11.65;92.91
73063;BME280;61230;46.328;19.972;2022-11-10T14:44:12;101706.16;;;11.60;93.55
73063;BME280;61230;46.328;19.972;2022-11-10T14:47:26;101715.25;;;11.56;93.07
73063;BME280;61230;46.328;19.972;2022-11-10T14:53:06;101721.81;;;11.50;93.71
73063;BME280;61230;46.328;19.972;2022-11-10T14:55:54;101719.50;;;11.35;94.88
73063;BME280;61230;46.328;19.972;2022-11-10T14:58:42;101712.72;;;11.43;93.83
73063;BME280;61230;46.328;19.972;2022-11-10T15:01:37;101726.94;;;11.41;94.15
73063;BME280;61230;46.328;19.972;2022-11-10T15:04:30;101716.66;;;11.38;94.17
73063;BME280;61230;46.328;19.972;2022-11-10T15:07:18;101714.72;;;11.40;94.47
73063;BME280;61230;46.328;19.972;2022-11-10T15:16:28;101731.09;;;11.32;94.98
73063;BME280;61230;46.328;19.972;2022-11-10T15:19:50;101741.97;;;11.28;95.08
73063;BME280;61230;46.328;19.972;2022-11-10T15:22:39;101741.97;;;11.28;95.23
73063;BME280;61230;46.328;19.972;2022-11-10T15:25:34;101753.72;;;11.24;95.23
73063;BME280;61230;46.328;19.972;2022-11-10T15:28:26;101746.03;;;11.21;95.39
73063;BME280;61230;46.328;19.972;2022-11-10T15:31:41;101753.19;;;11.19;95.63
73063;BME280;61230;46.328;19.972;2022-11-10T15:34:39;101759.41;;;11.18;95.71
73063;BME280;61230;46.328;19.972;2022-11-10T15:37:28;101754.16;;;11.18;95.82
73063;BME280;61230;46.328;19.972;2022-11-10T15:43:26;101763.94;;;11.16;95.92
73063;BME280;61230;46.328;19.972;2022-11-10T15:46:20;101766.78;;;11.13;96.14
73063;BME280;61230;46.328;19.972;2022-11-10T15:52:20;101761.66;;;11.11;96.41
73063;BME280;61230;46.328;19.972;2022-11-10T15:55:18;101770.50;;;11.10;96.41
73063;BME280;61230;46.328;19.972;2022-11-10T15:58:17;101779.37;;;11.09;96.29
73063;BME280;61230;46.328;19.972;2022-11-10T16:01:04;101779.47;;;11.08;96.52
73063;BME280;61230;46.328;19.972;2022-11-10T16:03:50;101776.81;;;11.08;96.49
73063;BME280;61230;46.328;19.972;2022-11-10T16:06:37;101780.44;;;11.07;96.40
73063;BME280;61230;46.328;19.972;2022-11-10T16:09:23;101783.06;;;11.07;96.40
73063;BME280;61230;46.328;19.972;2022-11-10T16:12:14;101787.59;;;11.05;96.43
73063;BME280;61230;46.328;19.972;2022-11-10T16:15:02;101790.13;;;11.06;96.46
73063;BME280;61230;46.328;19.972;2022-11-10T16:17:48;101799.59;;;11.09;96.33
73063;BME280;61230;46.328;19.972;2022-11-10T16:20:34;101806.78;;;11.07;96.36
73063;BME280;61230;46.328;19.972;2022-11-10T16:23:21;101802.44;;;11.06;96.50
73063;BME280;61230;46.328;19.972;2022-11-10T16:26:11;101802.53;;;11.04;96.63
73063;BME280;61230;46.328;19.972;2022-11-10T16:28:58;101804.34;;;11.04;96.58